createdAt,value
2023-03-03T00:00:26.041Z,20.20
2023-03-03T00:02:32.247Z,20.95
2023-03-03T00:04:39.810Z,22.92
2023-03-03T00:06:45.302Z,21.00
2023-03-03T00:08:51.072Z,22.42
2023-03-03T00:10:56.788Z,21.05
2023-03-03T00:13:04.455Z,20.30
2023-03-03T00:17:26.884Z,20.70
2023-03-03T00:19:41.171Z,20.73
2023-03-03T00:21:52.800Z,20.48
2023-03-03T00:24:02.627Z,22.05
2023-03-03T00:26:23.661Z,20.88
2023-03-03T00:28:34.929Z,22.73
2023-03-03T00:30:40.179Z,21.63
2023-03-03T00:32:54.078Z,23.27
2023-03-03T00:35:25.927Z,22.42
2023-03-03T00:37:40.508Z,21.40
2023-03-03T00:39:45.653Z,21.98
2023-03-03T00:41:51.413Z,23.17
2023-03-03T00:44:01.548Z,22.42
2023-03-03T00:46:18.652Z,22.30
2023-03-03T00:48:29.920Z,21.60
2023-03-03T00:50:39.923Z,22.73
2023-03-03T00:52:54.975Z,23.50
2023-03-03T00:54:59.881Z,23.30
2023-03-03T00:57:04.846Z,25.23
2023-03-03T00:59:12.615Z,25.10
2023-03-03T01:01:18.577Z,24.05
2023-03-03T01:03:29.072Z,23.90
2023-03-03T01:05:34.482Z,23.95
2023-03-03T01:07:39.413Z,23.60
2023-03-03T01:09:44.312Z,22.45
2023-03-03T01:11:49.446Z,18.92
2023-03-03T01:13:56.038Z,14.30
2023-03-03T01:16:05.122Z,18.45
2023-03-03T01:18:12.134Z,20.02
2023-03-03T01:20:19.969Z,21.73
2023-03-03T01:22:28.546Z,23.30
2023-03-03T01:24:34.023Z,19.80
2023-03-03T01:26:41.340Z,22.67
2023-03-03T01:28:46.383Z,22.52
2023-03-03T01:30:51.294Z,22.23
2023-03-03T01:32:59.196Z,22.67
2023-03-03T01:35:05.468Z,22.05
2023-03-03T01:37:11.872Z,23.35
2023-03-03T01:39:16.910Z,21.10
2023-03-03T01:41:22.017Z,20.83
2023-03-03T01:43:31.096Z,22.65
2023-03-03T01:46:08.545Z,22.58
2023-03-03T01:48:26.902Z,20.70
2023-03-03T01:50:46.386Z,23.25
2023-03-03T01:52:52.350Z,17.48
2023-03-03T01:55:04.780Z,19.13
2023-03-03T01:57:19.008Z,17.90
2023-03-03T01:59:31.603Z,16.27
2023-03-03T02:01:39.618Z,12.65
2023-03-03T02:03:51.061Z,22.00
2023-03-03T02:06:03.470Z,21.98
2023-03-03T02:08:10.582Z,21.58
2023-03-03T02:10:18.572Z,19.80
2023-03-03T02:12:36.407Z,22.30
2023-03-03T02:16:49.882Z,22.77
2023-03-03T02:18:57.500Z,25.25
2023-03-03T02:23:21.449Z,26.58
2023-03-03T02:25:34.769Z,27.20
2023-03-03T02:27:42.459Z,30.85
2023-03-03T02:31:52.788Z,31.10
2023-03-03T02:34:01.006Z,33.47
2023-03-03T02:36:06.242Z,32.15
2023-03-03T02:38:22.109Z,30.52
2023-03-03T02:40:30.970Z,32.05
2023-03-03T02:42:39.647Z,30.90
2023-03-03T02:44:48.905Z,30.83
2023-03-03T02:46:56.229Z,30.58
2023-03-03T02:49:01.545Z,32.70
2023-03-03T02:51:08.834Z,30.90
2023-03-03T02:53:14.119Z,30.15
2023-03-03T02:55:19.879Z,30.52
2023-03-03T02:57:29.923Z,31.33
2023-03-03T02:59:36.277Z,33.20
2023-03-03T03:01:50.463Z,31.33
2023-03-03T03:03:57.575Z,30.70
2023-03-03T03:06:04.582Z,30.83
2023-03-03T03:08:09.854Z,31.97
2023-03-03T03:10:15.959Z,30.48
2023-03-03T03:12:22.482Z,32.40
2023-03-03T03:14:31.177Z,29.80
2023-03-03T03:16:38.023Z,32.03
2023-03-03T03:18:45.926Z,32.25
2023-03-03T03:20:53.209Z,32.67
2023-03-03T03:22:58.629Z,30.35
2023-03-03T03:25:04.905Z,32.15
2023-03-03T03:27:10.949Z,29.65
2023-03-03T03:29:18.836Z,32.15
2023-03-03T03:31:25.586Z,29.83
2023-03-03T03:33:30.833Z,31.35
2023-03-03T03:35:40.559Z,33.25
2023-03-03T03:37:46.171Z,30.10
2023-03-03T03:39:51.222Z,30.48
2023-03-03T03:41:58.824Z,29.92
2023-03-03T03:44:03.740Z,29.90
2023-03-03T03:46:09.463Z,28.73
2023-03-03T03:48:16.147Z,29.98
2023-03-03T03:50:22.845Z,30.17
2023-03-03T03:52:34.460Z,29.75
2023-03-03T03:54:41.131Z,29.48
2023-03-03T03:56:46.158Z,30.17
2023-03-03T03:58:51.715Z,30.58
2023-03-03T04:00:57.325Z,29.70
2023-03-03T04:03:03.479Z,30.15
2023-03-03T04:05:12.612Z,31.20
2023-03-03T04:07:19.015Z,29.92
2023-03-03T04:09:28.393Z,30.20
2023-03-03T04:11:36.113Z,28.73
2023-03-03T04:13:43.160Z,29.80
2023-03-03T04:15:49.967Z,29.38
2023-03-03T04:17:55.450Z,28.17
2023-03-03T04:20:02.855Z,28.83
2023-03-03T04:22:08.152Z,29.15
2023-03-03T04:24:15.185Z,28.50
2023-03-03T04:26:26.214Z,28.42
2023-03-03T04:28:32.243Z,26.63
2023-03-03T04:30:39.170Z,28.58
2023-03-03T04:32:47.599Z,26.23
2023-03-03T04:34:58.605Z,27.70
2023-03-03T04:37:13.113Z,26.75
2023-03-03T04:39:19.188Z,28.05
2023-03-03T04:41:26.928Z,29.00
2023-03-03T04:43:34.819Z,28.35
2023-03-03T04:45:41.702Z,28.02
2023-03-03T04:47:47.688Z,29.08
2023-03-03T04:49:53.205Z,28.33
2023-03-03T04:52:03.068Z,28.48
2023-03-03T04:54:09.179Z,27.25
2023-03-03T04:56:17.716Z,28.52
2023-03-03T04:58:26.271Z,29.00
2023-03-03T05:00:33.488Z,29.90
2023-03-03T05:02:39.701Z,29.02
2023-03-03T05:04:45.232Z,28.98
2023-03-03T05:08:59.332Z,26.80
2023-03-03T05:11:05.288Z,28.73
2023-03-03T05:13:10.630Z,27.23
2023-03-03T05:15:18.473Z,29.83
2023-03-03T05:17:23.882Z,28.65
2023-03-03T05:19:29.197Z,29.85
2023-03-03T05:21:36.918Z,29.25
2023-03-03T05:23:42.890Z,29.55
2023-03-03T05:25:51.642Z,28.73
2023-03-03T05:27:58.156Z,29.08
2023-03-03T05:30:03.952Z,27.08
2023-03-03T05:32:18.907Z,27.33
2023-03-03T05:34:23.817Z,27.40
2023-03-03T05:36:30.029Z,27.63
2023-03-03T05:38:36.269Z,27.50
2023-03-03T05:42:49.192Z,26.13
2023-03-03T05:44:56.350Z,27.00
2023-03-03T05:47:04.204Z,27.52
2023-03-03T05:49:11.971Z,28.20
2023-03-03T05:51:17.268Z,25.92
2023-03-03T05:53:22.980Z,23.65
2023-03-03T05:55:31.049Z,26.33
2023-03-03T05:57:38.529Z,27.38
2023-03-03T06:01:53.392Z,25.15
2023-03-03T06:03:59.192Z,23.08
2023-03-03T06:06:09.151Z,22.88
2023-03-03T06:08:15.486Z,24.75
2023-03-03T06:10:23.204Z,26.55
2023-03-03T06:12:31.931Z,26.35
2023-03-03T06:14:39.464Z,25.20
2023-03-03T06:16:44.441Z,25.75
2023-03-03T06:18:51.979Z,26.48
2023-03-03T06:20:57.687Z,27.30
2023-03-03T06:23:08.096Z,26.00
2023-03-03T06:25:13.467Z,26.17
2023-03-03T06:27:18.806Z,22.00
2023-03-03T06:29:24.296Z,20.63
2023-03-03T06:31:30.720Z,22.77
2023-03-03T06:33:39.034Z,22.77
2023-03-03T06:35:44.768Z,22.35
2023-03-03T06:37:50.841Z,21.10
2023-03-03T06:39:58.816Z,21.30
2023-03-03T06:44:08.617Z,20.35
2023-03-03T06:46:13.629Z,21.23
2023-03-03T06:48:20.447Z,20.08
2023-03-03T06:50:25.558Z,20.55
2023-03-03T06:52:32.368Z,19.77
2023-03-03T06:54:38.490Z,20.65
2023-03-03T06:56:47.684Z,20.30
2023-03-03T06:58:56.080Z,21.08
2023-03-03T07:01:06.598Z,20.55
2023-03-03T07:03:20.813Z,19.67
2023-03-03T07:05:28.935Z,21.00
2023-03-03T07:07:33.969Z,22.90
2023-03-03T07:09:39.347Z,21.85
2023-03-03T07:11:49.098Z,19.25
2023-03-03T07:13:57.349Z,18.80
2023-03-03T07:16:15.221Z,19.88
2023-03-03T07:18:38.353Z,19.05
2023-03-03T07:20:44.485Z,18.27
2023-03-03T07:22:51.488Z,18.13
2023-03-03T07:25:00.748Z,18.30
2023-03-03T07:27:20.281Z,17.52
2023-03-03T07:29:30.557Z,18.00
2023-03-03T07:31:40.942Z,18.17
2023-03-03T07:33:48.333Z,18.50
2023-03-03T07:35:59.435Z,18.65
2023-03-03T07:38:05.345Z,18.15
2023-03-03T07:40:33.967Z,18.73
2023-03-03T07:42:46.626Z,18.67
2023-03-03T07:45:30.430Z,18.73
2023-03-03T07:49:49.697Z,18.92
2023-03-03T07:52:03.238Z,18.23
2023-03-03T07:54:30.256Z,19.95
2023-03-03T07:56:41.170Z,19.08
2023-03-03T07:58:50.997Z,18.05
2023-03-03T08:01:39.826Z,16.58
2023-03-03T08:03:47.066Z,16.27
2023-03-03T08:05:54.034Z,16.23
2023-03-03T08:08:18.293Z,16.67
2023-03-03T08:10:44.061Z,15.52
2023-03-03T08:12:49.024Z,15.55
2023-03-03T08:14:58.369Z,16.38
2023-03-03T08:17:05.362Z,15.50
2023-03-03T08:19:10.473Z,16.23
2023-03-03T08:21:17.550Z,16.90
2023-03-03T08:23:23.693Z,14.70
2023-03-03T08:25:30.047Z,14.40
2023-03-03T08:27:34.962Z,14.38
2023-03-03T08:29:40.655Z,14.65
2023-03-03T08:31:48.549Z,14.38
2023-03-03T08:33:54.598Z,14.77
2023-03-03T08:36:01.165Z,13.93
2023-03-03T08:38:06.855Z,14.48
2023-03-03T08:40:18.918Z,13.13
2023-03-03T08:42:23.840Z,12.65
2023-03-03T08:44:29.268Z,14.13
2023-03-03T08:46:34.253Z,14.98
2023-03-03T08:48:42.462Z,14.75
2023-03-03T08:50:50.015Z,12.70
2023-03-03T08:52:55.281Z,13.45
2023-03-03T08:55:00.267Z,14.77
2023-03-03T08:57:05.174Z,16.77
2023-03-03T08:59:11.043Z,14.60
2023-03-03T09:01:16.566Z,15.07
2023-03-03T09:03:22.665Z,15.07
2023-03-03T09:05:32.861Z,15.40
2023-03-03T09:07:37.944Z,17.33
2023-03-03T09:09:43.200Z,15.90
2023-03-03T09:11:48.143Z,14.48
2023-03-03T09:13:53.941Z,15.98
2023-03-03T09:16:01.103Z,15.25
2023-03-03T09:18:19.272Z,14.80
2023-03-03T09:20:36.075Z,14.93
2023-03-03T09:22:42.747Z,15.43
2023-03-03T09:24:49.178Z,14.75
2023-03-03T09:26:55.037Z,16.13
2023-03-03T09:29:20.078Z,15.02
2023-03-03T09:31:34.190Z,15.07
2023-03-03T09:33:47.566Z,12.23
2023-03-03T09:36:02.562Z,14.05
2023-03-03T09:38:33.422Z,14.77
2023-03-03T09:40:58.657Z,15.15
2023-03-03T09:43:07.636Z,14.15
2023-03-03T09:45:32.010Z,14.45
2023-03-03T09:47:55.744Z,15.15
2023-03-03T09:50:16.056Z,13.43
2023-03-03T09:52:40.137Z,14.95
2023-03-03T09:54:59.812Z,13.90
2023-03-03T09:57:13.465Z,15.50
2023-03-03T09:59:49.168Z,14.13
2023-03-03T10:02:13.199Z,15.10
2023-03-03T10:04:58.996Z,13.35
2023-03-03T10:07:22.404Z,14.23
2023-03-03T10:10:02.777Z,12.32
2023-03-03T10:12:22.584Z,12.50
2023-03-03T10:14:48.472Z,11.93
2023-03-03T10:17:09.416Z,11.07
2023-03-03T10:19:34.439Z,12.00
2023-03-03T10:21:44.342Z,11.50
2023-03-03T10:23:59.288Z,12.30
2023-03-03T10:26:20.180Z,12.63
2023-03-03T10:29:08.638Z,13.73
2023-03-03T10:31:28.309Z,12.93
2023-03-03T10:33:51.865Z,12.35
2023-03-03T10:36:35.854Z,12.63
2023-03-03T10:39:05.859Z,12.48
2023-03-03T10:41:31.901Z,15.88
2023-03-03T10:44:04.140Z,14.50
2023-03-03T10:46:36.272Z,12.85
2023-03-03T10:49:00.016Z,15.10
2023-03-03T10:51:21.656Z,13.18
2023-03-03T10:53:34.589Z,12.68
2023-03-03T10:55:50.185Z,19.98
2023-03-03T10:58:20.606Z,13.38
2023-03-03T11:00:32.688Z,12.27
2023-03-03T11:02:50.257Z,11.73
2023-03-03T11:05:15.529Z,11.20
2023-03-03T11:07:31.481Z,11.27
2023-03-03T11:10:18.752Z,11.60
2023-03-03T11:12:37.874Z,11.63
2023-03-03T11:14:54.889Z,11.18
2023-03-03T11:17:12.884Z,10.88
2023-03-03T11:20:04.907Z,11.02
2023-03-03T11:22:26.087Z,11.73
2023-03-03T11:24:46.250Z,10.82
2023-03-03T11:27:29.101Z,10.50
2023-03-03T11:29:52.861Z,10.68
2023-03-03T11:32:19.111Z,13.40
2023-03-03T11:34:47.512Z,11.38
2023-03-03T11:36:59.645Z,11.55
2023-03-03T11:39:07.935Z,13.32
2023-03-03T11:41:29.086Z,12.05
2023-03-03T11:43:41.548Z,11.93
2023-03-03T11:45:54.289Z,12.20
2023-03-03T11:48:09.040Z,11.20
2023-03-03T11:50:23.487Z,10.55
2023-03-03T11:52:37.169Z,10.85
2023-03-03T11:54:52.881Z,10.95
2023-03-03T11:57:11.854Z,10.70
2023-03-03T11:59:44.151Z,10.48
2023-03-03T12:02:00.555Z,10.27
2023-03-03T12:04:07.683Z,9.90
2023-03-03T12:06:26.350Z,10.15
2023-03-03T12:09:12.337Z,9.95
2023-03-03T12:11:29.340Z,9.35
2023-03-03T12:13:49.351Z,9.15
2023-03-03T12:16:03.403Z,9.93
2023-03-03T12:19:02.482Z,9.60
2023-03-03T12:21:25.084Z,9.50
2023-03-03T12:23:53.511Z,8.85
2023-03-03T12:26:08.739Z,8.63
2023-03-03T12:28:20.570Z,9.48
2023-03-03T12:30:44.588Z,9.43
2023-03-03T12:33:17.193Z,9.60
2023-03-03T12:35:37.481Z,9.80
2023-03-03T12:37:56.594Z,9.02
2023-03-03T12:40:11.282Z,9.35
2023-03-03T12:42:28.074Z,8.90
2023-03-03T12:44:38.351Z,10.10
2023-03-03T12:47:02.251Z,8.50
2023-03-03T12:49:08.255Z,8.60
2023-03-03T12:51:28.003Z,9.30
2023-03-03T12:53:48.888Z,8.57
2023-03-03T12:55:59.957Z,8.35
2023-03-03T12:58:16.787Z,8.65
2023-03-03T13:00:40.991Z,9.57
2023-03-03T13:02:59.173Z,9.50
2023-03-03T13:05:20.518Z,8.15
2023-03-03T13:07:34.549Z,9.40
2023-03-03T13:10:02.838Z,9.40
2023-03-03T13:12:30.488Z,8.82
2023-03-03T13:14:45.099Z,8.93
2023-03-03T13:17:01.540Z,9.73
2023-03-03T13:19:13.837Z,9.43
2023-03-03T13:21:29.185Z,9.93
2023-03-03T13:23:52.253Z,8.73
2023-03-03T13:26:03.535Z,9.30
2023-03-03T13:28:17.253Z,9.73
2023-03-03T13:30:26.621Z,8.77
2023-03-03T13:32:43.009Z,8.95
2023-03-03T13:34:58.612Z,9.17
2023-03-03T13:37:14.975Z,7.90
2023-03-03T13:39:30.041Z,8.63
2023-03-03T13:41:46.942Z,8.25
2023-03-03T13:44:00.154Z,8.88
2023-03-03T13:46:16.523Z,8.25
2023-03-03T13:48:43.234Z,8.80
2023-03-03T13:50:53.768Z,8.82
2023-03-03T13:53:21.110Z,9.20
2023-03-03T13:55:34.033Z,8.23
2023-03-03T13:57:59.889Z,9.07
2023-03-03T14:00:18.942Z,9.40
2023-03-03T14:02:53.859Z,9.48
2023-03-03T14:05:04.698Z,8.88
2023-03-03T14:07:18.268Z,7.80
2023-03-03T14:09:48.081Z,7.85
2023-03-03T14:12:06.473Z,8.55
2023-03-03T14:14:25.287Z,7.95
2023-03-03T14:16:52.205Z,7.72
2023-03-03T14:19:00.930Z,8.25
2023-03-03T14:21:15.181Z,7.43
2023-03-03T14:23:32.078Z,7.97
2023-03-03T14:26:01.735Z,7.75
2023-03-03T14:28:15.339Z,8.02
2023-03-03T14:30:35.158Z,7.93
2023-03-03T14:32:45.774Z,8.30
2023-03-03T14:35:02.638Z,9.05
2023-03-03T14:37:28.016Z,8.97
2023-03-03T14:39:39.502Z,9.32
2023-03-03T14:41:45.446Z,8.18
2023-03-03T14:44:04.055Z,8.60
2023-03-03T14:46:42.938Z,8.13
2023-03-03T14:48:55.039Z,8.15
2023-03-03T14:51:04.777Z,8.20
2023-03-03T14:53:18.950Z,8.65
2023-03-03T14:55:40.136Z,8.10
2023-03-03T14:57:48.961Z,8.07
2023-03-03T15:00:31.207Z,8.48
2023-03-03T15:02:40.649Z,7.35
2023-03-03T15:04:46.430Z,6.90
2023-03-03T15:06:53.326Z,8.35
2023-03-03T15:09:00.297Z,7.22
2023-03-03T15:11:28.915Z,7.40
2023-03-03T15:13:39.003Z,7.47
2023-03-03T15:15:55.668Z,8.00
2023-03-03T15:18:04.341Z,7.80
2023-03-03T15:20:40.381Z,7.35
2023-03-03T15:22:54.533Z,7.00
2023-03-03T15:25:06.525Z,6.85
2023-03-03T15:27:22.005Z,6.90
2023-03-03T15:29:35.610Z,7.63
2023-03-03T15:31:55.124Z,7.25
2023-03-03T15:36:29.390Z,8.68
2023-03-03T15:38:48.597Z,7.72
2023-03-03T15:41:03.382Z,9.55
2023-03-03T15:43:17.250Z,7.60
2023-03-03T15:45:31.586Z,8.30
2023-03-03T15:48:04.414Z,7.78
2023-03-03T15:50:37.866Z,6.80
2023-03-03T15:52:59.548Z,8.35
2023-03-03T15:55:27.468Z,7.40
2023-03-03T15:57:47.995Z,7.82
2023-03-03T16:00:22.680Z,7.35
2023-03-03T16:02:44.609Z,6.80
2023-03-03T16:05:04.045Z,6.85
2023-03-03T16:07:18.649Z,8.05
2023-03-03T16:09:43.593Z,7.47
2023-03-03T16:11:56.235Z,7.35
2023-03-03T16:14:40.579Z,7.85
2023-03-03T16:16:54.526Z,9.70
2023-03-03T16:19:16.678Z,7.50
2023-03-03T16:21:42.443Z,7.18
2023-03-03T16:23:52.876Z,7.28
2023-03-03T16:28:31.943Z,7.30
2023-03-03T16:30:49.580Z,7.13
2023-03-03T16:33:03.191Z,7.47
2023-03-03T16:35:25.804Z,7.07
2023-03-03T16:37:35.358Z,6.10
2023-03-03T16:39:57.502Z,7.63
2023-03-03T16:42:13.907Z,6.75
2023-03-03T16:44:38.293Z,6.97
2023-03-03T16:46:47.559Z,7.25
2023-03-03T16:49:01.499Z,6.80
2023-03-03T16:51:28.226Z,6.78
2023-03-03T16:53:54.491Z,7.03
2023-03-03T16:56:11.194Z,6.70
2023-03-03T16:58:44.427Z,7.00
2023-03-03T17:00:58.844Z,7.80
2023-03-03T17:03:50.347Z,10.27
2023-03-03T17:05:59.582Z,10.10
2023-03-03T17:08:26.284Z,8.82
2023-03-03T17:10:35.442Z,9.48
2023-03-03T17:13:09.493Z,8.45
2023-03-03T17:15:36.052Z,8.80
2023-03-03T17:17:49.022Z,8.68
2023-03-03T17:20:11.835Z,8.65
2023-03-03T17:22:31.109Z,8.27
2023-03-03T17:24:52.315Z,9.38
2023-03-03T17:27:13.834Z,9.43
2023-03-03T17:29:55.946Z,9.68
2023-03-03T17:32:16.673Z,9.80
2023-03-03T17:34:41.648Z,8.98
2023-03-03T17:37:08.828Z,8.98
2023-03-03T17:39:34.278Z,10.45
2023-03-03T17:41:50.530Z,9.35
2023-03-03T17:44:03.833Z,8.52
2023-03-03T17:46:20.162Z,9.05
2023-03-03T17:49:14.612Z,10.07
2023-03-03T17:51:50.205Z,9.82
2023-03-03T17:54:32.378Z,11.25
2023-03-03T17:56:51.617Z,9.68
2023-03-03T17:59:30.094Z,9.63
2023-03-03T18:01:56.730Z,9.55
2023-03-03T18:04:33.194Z,9.20
2023-03-03T18:07:03.304Z,11.38
2023-03-03T18:09:30.656Z,9.55
2023-03-03T18:14:29.831Z,9.55
2023-03-03T18:16:59.027Z,9.65
2023-03-03T18:19:32.271Z,9.70
2023-03-03T18:21:47.373Z,9.63
2023-03-03T18:23:56.750Z,9.13
2023-03-03T18:26:03.848Z,9.13
2023-03-03T18:28:38.890Z,9.85
2023-03-03T18:31:02.955Z,9.18
2023-03-03T18:33:14.007Z,9.60
2023-03-03T18:35:26.705Z,10.15
2023-03-03T18:37:45.166Z,9.52
2023-03-03T18:39:52.436Z,9.07
2023-03-03T18:42:37.660Z,9.63
2023-03-03T18:44:49.966Z,9.95
2023-03-03T18:47:01.493Z,8.77
2023-03-03T18:49:10.257Z,10.07
2023-03-03T18:51:35.542Z,10.95
2023-03-03T18:53:48.033Z,10.38
2023-03-03T18:55:55.182Z,10.82
2023-03-03T18:58:40.236Z,11.38
2023-03-03T19:00:52.693Z,10.98
2023-03-03T19:02:59.453Z,12.00
2023-03-03T19:05:26.059Z,11.90
2023-03-03T19:07:48.601Z,10.75
2023-03-03T19:10:01.907Z,10.65
2023-03-03T19:12:13.680Z,12.73
2023-03-03T19:14:39.098Z,14.63
2023-03-03T19:16:46.984Z,11.13
2023-03-03T19:21:26.623Z,10.35
2023-03-03T19:23:54.657Z,11.90
2023-03-03T19:27:01.069Z,11.15
2023-03-03T19:29:27.534Z,12.13
2023-03-03T19:31:46.625Z,10.93
2023-03-03T19:33:59.709Z,10.40
2023-03-03T19:36:58.474Z,11.10
2023-03-03T19:39:26.592Z,11.45
2023-03-03T19:41:57.461Z,12.02
2023-03-03T19:44:16.699Z,11.70
2023-03-03T19:46:41.855Z,12.25
2023-03-03T19:49:04.471Z,14.00
2023-03-03T19:51:18.688Z,12.10
2023-03-03T19:53:40.706Z,11.57
2023-03-03T19:56:09.331Z,11.73
2023-03-03T19:58:32.228Z,11.45
2023-03-03T20:00:44.953Z,11.80
2023-03-03T20:03:06.738Z,11.88
2023-03-03T20:05:24.447Z,13.68
2023-03-03T20:07:41.570Z,14.52
2023-03-03T20:09:57.616Z,14.65
2023-03-03T20:12:40.840Z,13.18
2023-03-03T20:14:52.026Z,13.27
2023-03-03T20:17:05.376Z,16.35
2023-03-03T20:19:33.471Z,17.33
2023-03-03T20:21:52.680Z,16.25
2023-03-03T20:24:19.205Z,15.95
2023-03-03T20:26:34.122Z,13.57
2023-03-03T20:29:09.162Z,14.90
2023-03-03T20:31:26.188Z,13.40
2023-03-03T20:33:55.019Z,13.93
2023-03-03T20:36:12.394Z,13.68
2023-03-03T20:38:30.940Z,13.23
2023-03-03T20:40:45.477Z,14.38
2023-03-03T20:43:00.471Z,13.48
2023-03-03T20:45:40.834Z,14.98
2023-03-03T20:48:05.524Z,15.70
2023-03-03T20:50:30.884Z,15.60
2023-03-03T20:52:47.334Z,13.88
2023-03-03T20:55:10.186Z,14.98
2023-03-03T20:57:22.516Z,14.20
2023-03-03T20:59:36.403Z,14.32
2023-03-03T21:01:54.777Z,13.75
2023-03-03T21:04:21.094Z,14.13
2023-03-03T21:06:44.640Z,13.52
2023-03-03T21:08:56.317Z,13.63
2023-03-03T21:11:07.994Z,14.15
2023-03-03T21:13:37.216Z,14.57
2023-03-03T21:15:42.244Z,12.55
2023-03-03T21:19:54.068Z,21.40
2023-03-03T21:22:02.392Z,14.75
2023-03-03T21:24:12.638Z,14.70
2023-03-03T21:26:55.721Z,14.90
2023-03-03T21:29:04.723Z,14.05
2023-03-03T21:31:16.852Z,13.35
2023-03-03T21:33:51.931Z,13.55
2023-03-03T21:36:03.120Z,16.77
2023-03-03T21:38:10.308Z,13.18
2023-03-03T21:40:21.044Z,14.27
2023-03-03T21:42:46.717Z,13.75
2023-03-03T21:44:54.233Z,13.75
2023-03-03T21:47:02.011Z,12.15
2023-03-03T21:49:08.278Z,11.45
2023-03-03T21:51:16.709Z,13.05
2023-03-03T21:53:23.635Z,12.60
2023-03-03T21:55:31.616Z,13.50
2023-03-03T21:57:40.188Z,13.95
2023-03-03T21:59:48.726Z,13.50
2023-03-03T22:01:54.200Z,11.77
2023-03-03T22:03:59.152Z,13.32
2023-03-03T22:06:06.731Z,11.93
2023-03-03T22:08:14.152Z,12.93
2023-03-03T22:10:19.816Z,12.80
2023-03-03T22:12:24.808Z,13.48
2023-03-03T22:14:33.257Z,12.00
2023-03-03T22:16:39.538Z,11.93
2023-03-03T22:18:47.024Z,12.98
2023-03-03T22:20:54.194Z,12.30
2023-03-03T22:23:03.885Z,12.27
2023-03-03T22:25:12.754Z,11.70
2023-03-03T22:27:17.758Z,12.18
2023-03-03T22:29:23.963Z,12.10
2023-03-03T22:31:32.335Z,11.68
2023-03-03T22:33:43.911Z,10.77
2023-03-03T22:35:49.388Z,12.48
2023-03-03T22:37:56.480Z,12.98
2023-03-03T22:40:01.680Z,13.75
2023-03-03T22:42:11.145Z,12.20
2023-03-03T22:44:16.084Z,13.27
2023-03-03T22:46:24.778Z,12.73
2023-03-03T22:48:33.360Z,13.43
2023-03-03T22:50:40.665Z,13.18
2023-03-03T22:52:46.084Z,13.73
2023-03-03T22:54:53.962Z,13.65
2023-03-03T22:57:00.835Z,13.30
2023-03-03T22:59:07.489Z,13.23
2023-03-03T23:01:13.220Z,13.82
2023-03-03T23:03:21.138Z,12.70
2023-03-03T23:05:29.926Z,12.40
2023-03-03T23:07:35.753Z,11.80
2023-03-03T23:09:40.730Z,12.55
2023-03-03T23:11:46.292Z,12.90
2023-03-03T23:13:53.417Z,12.88
2023-03-03T23:16:02.937Z,13.52
2023-03-03T23:18:08.181Z,13.95
2023-03-03T23:20:17.000Z,13.40
2023-03-03T23:22:24.532Z,12.75
2023-03-03T23:26:35.130Z,12.30
2023-03-03T23:28:40.104Z,12.77
2023-03-03T23:30:45.330Z,12.75
2023-03-03T23:32:55.733Z,12.05
2023-03-03T23:35:00.688Z,12.38
2023-03-03T23:37:06.576Z,11.73
2023-03-03T23:39:15.298Z,12.73
2023-03-03T23:41:23.508Z,11.13
2023-03-03T23:43:28.959Z,12.18
2023-03-03T23:45:36.530Z,12.23
2023-03-03T23:47:43.246Z,13.43
2023-03-03T23:49:48.559Z,13.18
2023-03-03T23:51:53.594Z,13.85
2023-03-03T23:53:59.412Z,13.40
2023-03-03T23:56:08.012Z,12.38
2023-03-03T23:58:15.241Z,12.45
